createdAt,value
2022-12-15T00:00:41.228Z,-6.06
2022-12-15T00:03:27.165Z,-5.83
2022-12-15T00:06:14.682Z,-5.60
2022-12-15T00:09:00.516Z,-5.70
2022-12-15T00:11:45.988Z,-5.66
2022-12-15T00:14:33.108Z,-5.88
2022-12-15T00:17:18.313Z,-5.83
2022-12-15T00:20:03.394Z,-6.09
2022-12-15T00:22:48.810Z,-5.95
2022-12-15T00:25:34.614Z,-6.01
2022-12-15T00:28:20.511Z,-5.70
2022-12-15T00:31:07.176Z,-5.77
2022-12-15T00:33:53.176Z,-5.80
2022-12-15T00:36:38.751Z,-5.88
2022-12-15T00:39:06.629Z,-5.84
2022-12-15T00:41:34.511Z,-5.60
2022-12-15T00:44:04.672Z,-5.58
2022-12-15T00:46:51.708Z,-5.43
2022-12-15T00:49:37.238Z,-5.48
2022-12-15T00:52:23.130Z,-5.68
2022-12-15T00:55:08.588Z,-5.89
2022-12-15T00:57:55.101Z,-5.75
2022-12-15T01:00:41.718Z,-5.94
2022-12-15T01:03:33.477Z,-5.81
2022-12-15T01:06:22.857Z,-5.72
2022-12-15T01:09:08.438Z,-5.45
2022-12-15T01:11:55.247Z,-5.63
2022-12-15T01:14:41.774Z,-5.43
2022-12-15T01:17:27.835Z,-5.28
2022-12-15T01:20:17.435Z,-5.37
2022-12-15T01:22:46.626Z,-5.24
2022-12-15T01:25:18.302Z,-5.32
2022-12-15T01:27:46.964Z,-5.34
2022-12-15T01:30:17.782Z,-5.23
2022-12-15T01:32:46.284Z,-5.27
2022-12-15T01:35:25.917Z,-5.13
2022-12-15T01:37:53.943Z,-5.25
2022-12-15T01:40:47.029Z,-5.06
2022-12-15T01:43:19.226Z,-5.10
2022-12-15T01:45:51.216Z,-5.12
2022-12-15T01:48:35.488Z,-5.17
2022-12-15T01:51:18.303Z,-5.44
2022-12-15T01:53:52.466Z,-5.62
2022-12-15T01:56:21.732Z,-5.48
2022-12-15T01:58:54.686Z,-5.30
2022-12-15T02:01:22.690Z,-5.21
2022-12-15T02:03:51.024Z,-5.47
2022-12-15T02:06:22.845Z,-5.36
2022-12-15T02:08:54.165Z,-5.44
2022-12-15T02:11:46.005Z,-5.38
2022-12-15T02:14:21.652Z,-5.30
2022-12-15T02:17:01.537Z,-5.15
2022-12-15T02:19:54.969Z,-4.92
2022-12-15T02:22:36.221Z,-5.00
2022-12-15T02:25:43.270Z,-5.04
2022-12-15T02:28:14.413Z,-5.07
2022-12-15T02:31:15.815Z,-5.14
2022-12-15T02:33:52.164Z,-5.19
2022-12-15T02:36:42.457Z,-5.01
2022-12-15T02:39:15.524Z,-4.79
2022-12-15T02:41:46.390Z,-4.80
2022-12-15T02:44:18.882Z,-4.81
2022-12-15T02:47:12.868Z,-4.79
2022-12-15T02:49:50.503Z,-4.74
2022-12-15T02:52:32.668Z,-4.86
2022-12-15T02:55:13.951Z,-4.69
2022-12-15T02:57:52.925Z,-4.69
2022-12-15T03:00:21.550Z,-4.74
2022-12-15T03:02:54.497Z,-4.80
2022-12-15T03:05:25.199Z,-4.90
2022-12-15T03:07:55.221Z,-4.86
2022-12-15T03:10:29.219Z,-4.82
2022-12-15T03:12:59.157Z,-4.90
2022-12-15T03:15:30.456Z,-4.86
2022-12-15T03:18:04.908Z,-4.91
2022-12-15T03:20:33.206Z,-4.95
2022-12-15T03:23:02.119Z,-4.92
2022-12-15T03:25:33.464Z,-4.97
2022-12-15T03:28:01.775Z,-4.92
2022-12-15T03:30:29.875Z,-4.95
2022-12-15T03:33:01.936Z,-4.88
2022-12-15T03:35:33.838Z,-4.79
2022-12-15T03:38:02.212Z,-4.76
2022-12-15T03:40:32.122Z,-4.84
2022-12-15T03:43:01.144Z,-4.79
2022-12-15T03:45:29.936Z,-4.98
2022-12-15T03:47:58.229Z,-4.87
2022-12-15T03:50:27.879Z,-4.82
2022-12-15T03:52:59.535Z,-4.66
2022-12-15T03:55:29.263Z,-4.66
2022-12-15T03:58:00.203Z,-4.67
2022-12-15T04:00:28.992Z,-4.54
2022-12-15T04:02:57.429Z,-4.57
2022-12-15T04:05:27.230Z,-4.63
2022-12-15T04:07:59.401Z,-4.84
2022-12-15T04:10:34.327Z,-4.91
2022-12-15T04:13:05.164Z,-4.74
2022-12-15T04:15:34.816Z,-4.76
2022-12-15T04:18:06.893Z,-4.62
2022-12-15T04:20:34.946Z,-4.64
2022-12-15T04:23:03.425Z,-4.59
2022-12-15T04:25:50.088Z,-4.59
2022-12-15T04:28:35.615Z,-4.49
2022-12-15T04:31:26.584Z,-4.38
2022-12-15T04:34:17.160Z,-4.28
2022-12-15T04:37:05.930Z,-4.08
2022-12-15T04:39:52.689Z,-4.05
2022-12-15T04:42:39.835Z,-3.99
2022-12-15T04:45:28.080Z,-3.82
2022-12-15T04:48:13.710Z,-3.91
2022-12-15T04:51:01.238Z,-3.99
2022-12-15T04:53:46.765Z,-4.01
2022-12-15T04:56:34.068Z,-4.00
2022-12-15T04:59:22.829Z,-4.04
2022-12-15T05:02:09.093Z,-3.96
2022-12-15T05:04:54.789Z,-4.07
2022-12-15T05:07:43.861Z,-4.17
2022-12-15T05:10:38.251Z,-4.25
2022-12-15T05:13:25.236Z,-4.13
2022-12-15T05:16:12.357Z,-4.36
2022-12-15T05:18:58.832Z,-4.41
2022-12-15T05:21:45.042Z,-4.41
2022-12-15T05:24:30.913Z,-4.55
2022-12-15T05:27:16.454Z,-4.33
2022-12-15T05:30:01.943Z,-4.29
2022-12-15T05:32:32.953Z,-4.16
2022-12-15T05:35:06.348Z,-4.11
2022-12-15T05:37:37.827Z,-4.30
2022-12-15T05:40:12.449Z,-4.31
2022-12-15T05:42:40.323Z,-4.33
2022-12-15T05:45:10.338Z,-4.49
2022-12-15T05:47:53.213Z,-4.34
2022-12-15T05:50:23.306Z,-4.36
2022-12-15T05:52:55.668Z,-4.27
2022-12-15T05:55:25.213Z,-4.18
2022-12-15T05:57:54.039Z,-4.09
2022-12-15T06:00:28.138Z,-4.10
2022-12-15T06:02:59.028Z,-4.15
2022-12-15T06:05:26.953Z,-4.06
2022-12-15T06:07:54.899Z,-4.04
2022-12-15T06:10:23.067Z,-3.98
2022-12-15T06:12:51.066Z,-3.95
2022-12-15T06:15:19.038Z,-4.01
2022-12-15T06:17:49.584Z,-3.97
2022-12-15T06:20:19.281Z,-4.00
2022-12-15T06:22:50.095Z,-4.08
2022-12-15T06:25:18.491Z,-4.09
2022-12-15T06:27:46.636Z,-3.92
2022-12-15T06:30:16.223Z,-4.06
2022-12-15T06:32:44.069Z,-4.01
2022-12-15T06:35:12.072Z,-3.83
2022-12-15T06:37:46.064Z,-3.65
2022-12-15T06:40:14.261Z,-3.45
2022-12-15T06:42:42.148Z,-3.30
2022-12-15T06:45:11.007Z,-3.23
2022-12-15T06:47:43.719Z,-3.01
2022-12-15T06:50:14.520Z,-2.89
2022-12-15T06:52:46.346Z,-2.80
2022-12-15T06:55:14.619Z,-2.82
2022-12-15T06:57:43.943Z,-2.92
2022-12-15T07:00:12.767Z,-3.11
2022-12-15T07:02:43.173Z,-3.22
2022-12-15T07:05:17.282Z,-3.38
2022-12-15T07:07:48.178Z,-3.59
2022-12-15T07:10:16.367Z,-3.60
2022-12-15T07:12:44.703Z,-3.41
2022-12-15T07:15:13.122Z,-3.40
2022-12-15T07:17:41.112Z,-3.41
2022-12-15T07:20:11.194Z,-3.42
2022-12-15T07:22:39.141Z,-3.42
2022-12-15T07:25:11.119Z,-3.35
2022-12-15T07:27:38.962Z,-3.33
2022-12-15T07:30:08.806Z,-3.29
2022-12-15T07:32:36.604Z,-3.51
2022-12-15T07:35:05.937Z,-3.51
2022-12-15T07:37:33.862Z,-3.40
2022-12-15T07:40:04.650Z,-3.49
2022-12-15T07:42:33.867Z,-3.31
2022-12-15T07:45:01.952Z,-3.27
2022-12-15T07:47:29.948Z,-3.16
2022-12-15T07:49:58.307Z,-3.18
2022-12-15T07:52:26.592Z,-3.24
2022-12-15T07:54:55.398Z,-3.12
2022-12-15T07:57:23.674Z,-2.97
2022-12-15T07:59:53.375Z,-2.94
2022-12-15T08:02:21.508Z,-2.91
2022-12-15T08:04:49.395Z,-2.85
2022-12-15T08:07:17.804Z,-2.77
2022-12-15T08:09:47.682Z,-2.73
2022-12-15T08:12:17.124Z,-2.70
2022-12-15T08:14:50.004Z,-2.59
2022-12-15T08:17:19.930Z,-2.66
2022-12-15T08:19:47.952Z,-2.77
2022-12-15T08:22:28.532Z,-2.83
2022-12-15T08:24:56.561Z,-2.83
2022-12-15T08:27:24.340Z,-2.84
2022-12-15T08:29:52.838Z,-2.81
2022-12-15T08:32:24.611Z,-2.81
2022-12-15T08:34:52.558Z,-2.80
2022-12-15T08:37:20.514Z,-2.82
2022-12-15T08:39:48.653Z,-2.82
2022-12-15T08:42:16.469Z,-2.80
2022-12-15T08:45:13.162Z,-2.78
2022-12-15T08:47:42.591Z,-2.80
2022-12-15T08:50:10.671Z,-2.75
2022-12-15T08:52:55.259Z,-2.70
2022-12-15T08:55:29.605Z,-2.66
2022-12-15T08:57:57.638Z,-2.59
2022-12-15T09:00:25.693Z,-2.46
2022-12-15T09:02:55.470Z,-2.26
2022-12-15T09:05:26.080Z,-2.12
2022-12-15T09:07:59.426Z,-2.05
2022-12-15T09:10:31.568Z,-1.99
2022-12-15T09:12:59.461Z,-1.77
2022-12-15T09:15:45.646Z,-1.78
2022-12-15T09:18:16.718Z,-1.60
2022-12-15T09:20:45.731Z,-1.44
2022-12-15T09:23:14.054Z,-1.25
2022-12-15T09:25:42.412Z,-1.01
2022-12-15T09:28:12.954Z,-0.57
2022-12-15T09:30:41.004Z,-0.38
2022-12-15T09:33:12.597Z,-0.01
2022-12-15T09:36:08.538Z,0.14
2022-12-15T09:38:41.046Z,0.13
2022-12-15T09:41:19.529Z,0.05
2022-12-15T09:43:55.042Z,0.13
2022-12-15T09:46:31.858Z,-0.03
2022-12-15T09:49:09.857Z,-0.35
2022-12-15T09:51:51.943Z,-0.58
2022-12-15T09:54:41.872Z,-0.62
2022-12-15T09:57:24.949Z,-0.67
2022-12-15T10:00:17.839Z,-0.66
2022-12-15T10:03:30.274Z,-0.64
2022-12-15T10:06:18.295Z,-0.53
2022-12-15T10:08:58.141Z,-0.68
2022-12-15T10:11:42.009Z,-0.51
2022-12-15T10:14:25.421Z,-0.47
2022-12-15T10:17:02.487Z,-0.48
2022-12-15T10:19:39.910Z,-0.54
2022-12-15T10:22:13.911Z,-0.41
2022-12-15T10:27:57.168Z,-0.39
2022-12-15T10:30:25.477Z,-0.38
2022-12-15T10:33:02.780Z,-0.21
2022-12-15T10:35:42.487Z,-0.06
2022-12-15T10:38:23.234Z,0.09
2022-12-15T10:40:55.121Z,0.29
2022-12-15T10:43:36.591Z,0.38
2022-12-15T10:46:14.252Z,0.42
2022-12-15T10:48:43.912Z,0.44
2022-12-15T10:51:27.215Z,0.38
2022-12-15T10:54:04.799Z,0.53
2022-12-15T10:56:40.423Z,0.60
2022-12-15T10:59:31.120Z,0.70
2022-12-15T11:02:27.237Z,0.81
2022-12-15T11:04:59.685Z,0.86
2022-12-15T11:07:34.126Z,1.27
2022-12-15T11:10:09.569Z,1.51
2022-12-15T11:12:58.274Z,1.88
2022-12-15T11:15:50.742Z,2.19
2022-12-15T11:18:28.903Z,2.06
2022-12-15T11:21:02.995Z,1.74
2022-12-15T11:23:51.870Z,1.76
2022-12-15T11:26:50.369Z,1.95
2022-12-15T11:29:30.847Z,1.83
2022-12-15T11:32:03.203Z,1.79
2022-12-15T11:34:38.732Z,1.57
2022-12-15T11:37:34.033Z,1.75
2022-12-15T11:40:18.325Z,1.78
2022-12-15T11:43:01.652Z,2.04
2022-12-15T11:45:40.684Z,2.12
2022-12-15T11:48:14.588Z,2.11
2022-12-15T11:50:54.619Z,2.33
2022-12-15T11:53:58.070Z,2.19
2022-12-15T11:56:30.994Z,2.17
2022-12-15T11:59:24.150Z,2.50
2022-12-15T12:02:09.765Z,2.52
2022-12-15T12:04:50.771Z,2.40
2022-12-15T12:07:34.579Z,2.36
2022-12-15T12:10:15.527Z,2.12
2022-12-15T12:12:50.615Z,2.04
2022-12-15T12:15:31.377Z,1.82
2022-12-15T12:18:08.927Z,1.90
2022-12-15T12:20:44.695Z,2.14
2022-12-15T12:23:18.063Z,2.83
2022-12-15T12:26:03.476Z,3.47
2022-12-15T12:28:41.867Z,3.81
2022-12-15T12:31:23.853Z,4.26
2022-12-15T12:34:02.599Z,4.52
2022-12-15T12:36:30.641Z,4.45
2022-12-15T12:39:00.167Z,4.75
2022-12-15T12:41:40.404Z,5.21
2022-12-15T12:44:15.997Z,4.53
2022-12-15T12:46:48.950Z,4.61
2022-12-15T12:49:27.276Z,4.73
2022-12-15T12:51:58.672Z,4.68
2022-12-15T12:54:47.983Z,4.84
2022-12-15T12:57:38.048Z,4.30
2022-12-15T13:00:16.910Z,4.12
2022-12-15T13:03:05.953Z,4.00
2022-12-15T13:05:39.900Z,3.46
2022-12-15T13:08:33.375Z,3.24
2022-12-15T13:11:39.780Z,3.49
2022-12-15T13:17:27.977Z,3.21
2022-12-15T13:20:18.656Z,3.37
2022-12-15T13:22:48.713Z,3.39
2022-12-15T13:25:48.586Z,3.16
2022-12-15T13:28:42.859Z,3.24
2022-12-15T13:31:34.369Z,3.65
2022-12-15T13:34:19.278Z,3.56
2022-12-15T13:36:54.871Z,3.59
2022-12-15T13:39:53.613Z,3.69
2022-12-15T13:42:44.493Z,3.59
2022-12-15T13:45:51.852Z,3.53
2022-12-15T13:48:32.751Z,3.28
2022-12-15T13:51:25.126Z,3.74
2022-12-15T13:53:59.526Z,3.50
2022-12-15T13:56:52.924Z,3.55
2022-12-15T13:59:44.821Z,3.09
2022-12-15T14:02:31.500Z,2.60
2022-12-15T14:05:15.158Z,2.31
2022-12-15T14:07:54.179Z,2.24
2022-12-15T14:10:25.950Z,2.02
2022-12-15T14:12:59.037Z,1.97
2022-12-15T14:15:30.022Z,2.07
2022-12-15T14:17:59.791Z,2.14
2022-12-15T14:20:30.711Z,2.12
2022-12-15T14:22:58.762Z,2.14
2022-12-15T14:25:30.544Z,2.19
2022-12-15T14:28:00.044Z,2.09
2022-12-15T14:30:29.967Z,1.97
2022-12-15T14:33:04.125Z,1.87
2022-12-15T14:35:41.657Z,1.77
2022-12-15T14:38:15.946Z,1.67
2022-12-15T14:40:46.643Z,1.55
2022-12-15T14:43:22.090Z,1.45
2022-12-15T14:45:56.002Z,1.35
2022-12-15T14:48:40.990Z,1.36
2022-12-15T14:51:12.301Z,1.21
2022-12-15T14:53:43.238Z,1.24
2022-12-15T14:56:30.508Z,1.29
2022-12-15T14:59:03.997Z,1.27
2022-12-15T15:01:37.021Z,1.23
2022-12-15T15:03:11.153Z,3.40
2022-12-15T15:04:06.426Z,1.21
2022-12-15T15:06:38.549Z,1.19
2022-12-15T15:09:25.833Z,1.07
2022-12-15T15:11:56.991Z,0.90
2022-12-15T15:14:29.805Z,0.66
2022-12-15T15:17:05.093Z,0.66
2022-12-15T15:19:39.571Z,0.76
2022-12-15T15:22:26.827Z,0.71
2022-12-15T15:24:55.050Z,0.57
2022-12-15T15:27:34.084Z,0.41
2022-12-15T15:30:17.847Z,0.57
2022-12-15T15:32:58.542Z,0.63
2022-12-15T15:35:33.088Z,0.80
2022-12-15T15:38:05.843Z,0.85
2022-12-15T15:40:33.924Z,0.95
2022-12-15T15:43:04.192Z,0.95
2022-12-15T15:45:38.606Z,0.97
2022-12-15T15:48:07.532Z,0.94
2022-12-15T15:50:39.376Z,0.79
2022-12-15T15:53:08.691Z,0.75
2022-12-15T15:55:39.836Z,0.71
2022-12-15T15:58:12.685Z,0.55
2022-12-15T16:00:42.250Z,0.53
2022-12-15T16:03:10.933Z,0.43
2022-12-15T16:05:42.136Z,0.36
2022-12-15T16:08:18.803Z,0.23
2022-12-15T16:10:48.873Z,0.15
2022-12-15T16:13:25.807Z,0.03
2022-12-15T16:15:57.718Z,-0.10
2022-12-15T16:18:25.667Z,-0.13
2022-12-15T16:20:54.316Z,-0.21
2022-12-15T16:23:26.594Z,-0.20
2022-12-15T16:25:57.597Z,-0.33
2022-12-15T16:28:28.127Z,-0.40
2022-12-15T16:30:59.708Z,-0.24
2022-12-15T16:33:28.389Z,-0.42
2022-12-15T16:35:57.036Z,-0.07
2022-12-15T16:38:44.683Z,-0.09
2022-12-15T16:41:25.052Z,-0.19
2022-12-15T16:43:53.699Z,-0.19
2022-12-15T16:46:23.996Z,-0.29
2022-12-15T16:48:52.584Z,-0.26
2022-12-15T16:51:31.558Z,-0.30
2022-12-15T16:53:59.623Z,-0.28
2022-12-15T16:56:27.548Z,-0.32
2022-12-15T16:59:15.688Z,-0.45
2022-12-15T17:01:49.350Z,-0.56
2022-12-15T17:04:17.429Z,-0.53
2022-12-15T17:06:48.216Z,-0.71
2022-12-15T17:09:26.593Z,-0.74
2022-12-15T17:11:54.675Z,-0.74
2022-12-15T17:14:22.823Z,-0.70
2022-12-15T17:16:56.082Z,-0.79
2022-12-15T17:19:25.233Z,-0.77
2022-12-15T17:21:54.832Z,-0.78
2022-12-15T17:24:23.623Z,-0.82
2022-12-15T17:26:52.127Z,-0.89
2022-12-15T17:29:22.932Z,-0.96
2022-12-15T17:31:52.963Z,-1.02
2022-12-15T17:34:28.868Z,-1.02
2022-12-15T17:36:59.227Z,-1.05
2022-12-15T17:39:31.943Z,-1.11
2022-12-15T17:42:01.550Z,-1.13
2022-12-15T17:44:34.453Z,-1.04
2022-12-15T17:47:06.293Z,-0.93
2022-12-15T17:49:37.508Z,-1.01
2022-12-15T17:52:16.040Z,-0.98
2022-12-15T17:54:53.113Z,-0.92
2022-12-15T17:57:33.826Z,-0.91
2022-12-15T18:00:17.508Z,-0.85
2022-12-15T18:02:56.844Z,-0.71
2022-12-15T18:05:29.109Z,-0.71
2022-12-15T18:08:11.568Z,-0.66
2022-12-15T18:10:41.931Z,-0.63
2022-12-15T18:13:18.394Z,-0.57
2022-12-15T18:15:52.796Z,-0.64
2022-12-15T18:21:30.660Z,-0.78
2022-12-15T18:23:58.724Z,-0.84
2022-12-15T18:26:27.028Z,-0.68
2022-12-15T18:28:55.207Z,-0.62
2022-12-15T18:31:26.867Z,-0.57
2022-12-15T18:34:04.124Z,-0.53
2022-12-15T18:36:37.555Z,-0.51
2022-12-15T18:39:19.731Z,-0.54
2022-12-15T18:41:49.258Z,-0.56
2022-12-15T18:44:22.710Z,-0.56
2022-12-15T18:46:50.663Z,-0.55
2022-12-15T18:49:29.029Z,-0.48
2022-12-15T18:52:03.416Z,-0.49
2022-12-15T18:54:33.098Z,-0.52
2022-12-15T18:57:06.863Z,-0.54
2022-12-15T18:59:35.294Z,-0.58
2022-12-15T19:02:03.336Z,-0.64
2022-12-15T19:04:34.324Z,-0.72
2022-12-15T19:07:06.650Z,-0.80
2022-12-15T19:09:35.219Z,-0.88
2022-12-15T19:12:21.768Z,-1.03
2022-12-15T19:14:53.012Z,-1.16
2022-12-15T19:17:42.155Z,-1.11
2022-12-15T19:20:36.242Z,-1.14
2022-12-15T19:23:06.732Z,-1.16
2022-12-15T19:25:36.031Z,-1.10
2022-12-15T19:28:04.077Z,-1.06
2022-12-15T19:30:40.144Z,-1.08
2022-12-15T19:33:09.837Z,-1.05
2022-12-15T19:35:41.703Z,-1.01
2022-12-15T19:38:23.098Z,-1.05
2022-12-15T19:40:53.701Z,-1.10
2022-12-15T19:43:22.903Z,-1.10
2022-12-15T19:45:52.016Z,-1.03
2022-12-15T19:48:24.127Z,-1.00
2022-12-15T19:50:58.228Z,-0.97
2022-12-15T19:53:28.927Z,-0.93
2022-12-15T19:55:59.482Z,-0.87
2022-12-15T19:58:31.893Z,-0.83
2022-12-15T20:01:04.933Z,-0.82
2022-12-15T20:03:34.089Z,-0.78
2022-12-15T20:06:05.060Z,-0.67
2022-12-15T20:08:36.594Z,-0.72
2022-12-15T20:11:05.294Z,-0.67
2022-12-15T20:13:33.731Z,-0.66
2022-12-15T20:16:01.991Z,-0.74
2022-12-15T20:18:30.512Z,-0.70
2022-12-15T20:21:01.324Z,-0.75
2022-12-15T20:23:32.886Z,-0.72
2022-12-15T20:26:01.296Z,-0.76
2022-12-15T20:28:30.939Z,-0.68
2022-12-15T20:31:00.741Z,-0.70
2022-12-15T20:33:28.751Z,-0.72
2022-12-15T20:35:57.570Z,-0.65
2022-12-15T20:38:31.524Z,-0.59
2022-12-15T20:41:01.170Z,-0.55
2022-12-15T20:43:32.284Z,-0.55
2022-12-15T20:46:04.919Z,-0.53
2022-12-15T20:48:36.727Z,-0.55
2022-12-15T20:51:09.755Z,-0.56
2022-12-15T20:53:41.823Z,-0.57
2022-12-15T20:56:11.680Z,-0.53
2022-12-15T20:58:46.140Z,-0.53
2022-12-15T21:01:19.726Z,-0.52
2022-12-15T21:03:48.969Z,-0.53
2022-12-15T21:06:17.947Z,-0.48
2022-12-15T21:08:48.557Z,-0.50
2022-12-15T21:11:19.575Z,-0.59
2022-12-15T21:13:50.275Z,-0.54
2022-12-15T21:16:21.388Z,-0.53
2022-12-15T21:19:18.597Z,-0.61
2022-12-15T21:21:41.875Z,-0.58
2022-12-15T21:24:17.597Z,-0.64
2022-12-15T21:26:46.473Z,-0.67
2022-12-15T21:29:16.587Z,-0.68
2022-12-15T21:31:44.921Z,-0.75
2022-12-15T21:34:12.836Z,-0.74
2022-12-15T21:36:43.122Z,-0.69
2022-12-15T21:39:19.268Z,-0.75
2022-12-15T21:41:51.532Z,-0.78
2022-12-15T21:44:21.854Z,-0.73
2022-12-15T21:46:50.233Z,-0.72
2022-12-15T21:49:21.853Z,-0.81
2022-12-15T21:51:54.964Z,-0.76
2022-12-15T21:54:30.976Z,-0.77
2022-12-15T21:56:59.879Z,-0.78
2022-12-15T21:59:31.230Z,-0.80
2022-12-15T22:02:01.358Z,-0.84
2022-12-15T22:04:31.774Z,-0.86
2022-12-15T22:06:59.939Z,-0.95
2022-12-15T22:12:25.314Z,-0.98
2022-12-15T22:14:53.318Z,-0.98
2022-12-15T22:17:27.515Z,-0.94
2022-12-15T22:19:57.059Z,-0.88
2022-12-15T22:22:32.508Z,-0.83
2022-12-15T22:25:18.861Z,-0.81
2022-12-15T22:27:48.862Z,-0.71
2022-12-15T22:30:25.244Z,-0.71
2022-12-15T22:32:53.847Z,-0.74
2022-12-15T22:35:25.368Z,-0.88
2022-12-15T22:37:55.229Z,-0.95
2022-12-15T22:40:30.410Z,-1.04
2022-12-15T22:43:00.426Z,-1.07
2022-12-15T22:45:30.744Z,-1.13
2022-12-15T22:48:02.415Z,-1.21
2022-12-15T22:50:30.604Z,-1.35
2022-12-15T22:52:58.576Z,-1.41
2022-12-15T22:55:28.406Z,-1.34
2022-12-15T22:58:00.632Z,-1.23
2022-12-15T23:00:29.356Z,-1.16
2022-12-15T23:03:12.438Z,-1.03
2022-12-15T23:05:45.609Z,-0.97
2022-12-15T23:08:13.579Z,-0.90
2022-12-15T23:11:00.567Z,-0.84
2022-12-15T23:13:28.702Z,-0.78
2022-12-15T23:16:14.129Z,-0.80
2022-12-15T23:18:42.163Z,-0.73
2022-12-15T23:21:12.280Z,-0.61
2022-12-15T23:23:41.635Z,-0.65
2022-12-15T23:26:13.552Z,-0.65
2022-12-15T23:28:43.265Z,-0.63
2022-12-15T23:31:11.780Z,-0.60
2022-12-15T23:33:41.207Z,-0.64
2022-12-15T23:36:12.214Z,-0.62
2022-12-15T23:38:40.206Z,-0.64
2022-12-15T23:41:08.190Z,-0.66
2022-12-15T23:43:37.814Z,-0.63
2022-12-15T23:46:09.044Z,-0.50
2022-12-15T23:48:39.022Z,-0.58
2022-12-15T23:51:10.400Z,-0.45
2022-12-15T23:53:39.805Z,-0.47
2022-12-15T23:56:12.545Z,-0.55
2022-12-15T23:58:50.061Z,-0.46
